createdAt,value
2023-01-25T00:00:28.452Z,14.50
2023-01-25T00:02:55.231Z,14.37
2023-01-25T00:05:21.995Z,13.37
2023-01-25T00:07:48.702Z,14.57
2023-01-25T00:10:15.668Z,13.13
2023-01-25T00:12:42.386Z,12.90
2023-01-25T00:15:09.831Z,13.83
2023-01-25T00:17:36.806Z,14.67
2023-01-25T00:20:04.167Z,15.27
2023-01-25T00:22:31.066Z,14.30
2023-01-25T00:24:57.903Z,15.17
2023-01-25T00:27:24.755Z,15.20
2023-01-25T00:29:51.637Z,15.17
2023-01-25T00:32:21.476Z,15.40
2023-01-25T00:34:50.507Z,14.07
2023-01-25T00:37:36.765Z,14.17
2023-01-25T00:40:04.271Z,14.83
2023-01-25T00:42:31.113Z,13.13
2023-01-25T00:44:57.986Z,15.13
2023-01-25T00:47:24.713Z,14.90
2023-01-25T00:49:51.480Z,15.10
2023-01-25T00:52:18.720Z,14.23
2023-01-25T00:54:45.523Z,14.30
2023-01-25T00:57:12.286Z,14.87
2023-01-25T00:59:39.081Z,14.00
2023-01-25T01:02:05.876Z,13.90
2023-01-25T01:04:33.377Z,14.93
2023-01-25T01:07:00.269Z,14.80
2023-01-25T01:09:27.092Z,15.37
2023-01-25T01:11:54.571Z,15.07
2023-01-25T01:14:22.996Z,14.67
2023-01-25T01:16:49.830Z,14.40
2023-01-25T01:19:16.680Z,13.00
2023-01-25T01:21:43.477Z,14.27
2023-01-25T01:24:11.479Z,14.63
2023-01-25T01:26:38.329Z,13.83
2023-01-25T01:29:05.542Z,13.80
2023-01-25T01:31:32.481Z,14.63
2023-01-25T01:33:59.380Z,13.80
2023-01-25T01:36:28.534Z,13.67
2023-01-25T01:38:55.294Z,13.97
2023-01-25T01:41:22.520Z,12.63
2023-01-25T01:43:49.901Z,12.80
2023-01-25T01:46:29.079Z,11.43
2023-01-25T01:49:17.160Z,13.30
2023-01-25T01:51:56.519Z,13.47
2023-01-25T01:54:32.022Z,13.37
2023-01-25T01:57:05.560Z,12.67
2023-01-25T01:59:37.611Z,12.97
2023-01-25T02:02:04.478Z,11.87
2023-01-25T02:04:32.582Z,11.43
2023-01-25T02:07:06.261Z,12.27
2023-01-25T02:09:36.134Z,11.57
2023-01-25T02:12:04.316Z,11.60
2023-01-25T02:14:31.203Z,12.37
2023-01-25T02:16:58.414Z,11.00
2023-01-25T02:19:49.337Z,12.63
2023-01-25T02:22:20.517Z,11.60
2023-01-25T02:24:57.540Z,12.13
2023-01-25T02:27:24.418Z,11.77
2023-01-25T02:29:51.667Z,10.93
2023-01-25T02:32:18.509Z,10.40
2023-01-25T02:34:45.368Z,11.30
2023-01-25T02:40:05.719Z,11.37
2023-01-25T02:42:35.507Z,10.60
2023-01-25T02:45:05.297Z,11.70
2023-01-25T02:47:32.136Z,12.03
2023-01-25T02:49:58.839Z,10.93
2023-01-25T02:52:25.717Z,10.33
2023-01-25T02:54:52.427Z,10.90
2023-01-25T02:57:19.147Z,10.10
2023-01-25T02:59:46.014Z,10.43
2023-01-25T03:02:12.723Z,10.27
2023-01-25T03:04:39.528Z,8.40
2023-01-25T03:07:06.787Z,9.40
2023-01-25T03:09:33.492Z,9.47
2023-01-25T03:12:00.272Z,10.10
2023-01-25T03:14:27.064Z,9.70
2023-01-25T03:16:53.790Z,9.10
2023-01-25T03:19:20.699Z,8.93
2023-01-25T03:21:47.438Z,8.43
2023-01-25T03:24:14.324Z,9.03
2023-01-25T03:26:59.916Z,8.43
2023-01-25T03:29:26.591Z,9.57
2023-01-25T03:31:53.373Z,8.37
2023-01-25T03:34:20.857Z,8.97
2023-01-25T03:36:47.524Z,8.80
2023-01-25T03:39:14.339Z,9.20
2023-01-25T03:41:41.075Z,8.40
2023-01-25T03:44:11.437Z,8.70
2023-01-25T03:46:42.293Z,9.03
2023-01-25T03:49:09.734Z,7.90
2023-01-25T03:51:36.580Z,9.07
2023-01-25T03:54:04.035Z,7.87
2023-01-25T03:56:30.854Z,7.73
2023-01-25T03:58:57.534Z,8.17
2023-01-25T04:01:24.311Z,7.87
2023-01-25T04:03:51.128Z,8.40
2023-01-25T04:06:17.871Z,8.37
2023-01-25T04:08:44.657Z,7.57
2023-01-25T04:11:11.656Z,8.80
2023-01-25T04:13:38.679Z,9.23
2023-01-25T04:16:07.201Z,8.50
2023-01-25T04:18:33.961Z,9.13
2023-01-25T04:21:00.667Z,7.93
2023-01-25T04:23:27.696Z,8.00
2023-01-25T04:26:05.140Z,7.43
2023-01-25T04:28:33.847Z,7.80
2023-01-25T04:31:00.818Z,7.50
2023-01-25T04:33:27.631Z,7.67
2023-01-25T04:35:54.381Z,7.37
2023-01-25T04:38:21.450Z,7.60
2023-01-25T04:40:48.102Z,6.93
2023-01-25T04:43:16.397Z,7.37
2023-01-25T04:45:43.333Z,7.97
2023-01-25T04:48:11.768Z,8.47
2023-01-25T04:50:40.016Z,8.00
2023-01-25T04:53:08.049Z,7.10
2023-01-25T04:55:35.323Z,8.23
2023-01-25T04:58:02.684Z,8.33
2023-01-25T05:00:30.146Z,8.20
2023-01-25T05:02:57.034Z,8.13
2023-01-25T05:05:23.778Z,8.37
2023-01-25T05:07:50.481Z,8.00
2023-01-25T05:10:17.166Z,7.93
2023-01-25T05:12:43.889Z,8.83
2023-01-25T05:15:11.533Z,7.90
2023-01-25T05:17:38.697Z,8.17
2023-01-25T05:20:05.778Z,8.73
2023-01-25T05:22:32.625Z,8.77
2023-01-25T05:24:59.404Z,8.67
2023-01-25T05:27:26.268Z,8.73
2023-01-25T05:29:53.174Z,8.63
2023-01-25T05:32:22.141Z,9.40
2023-01-25T05:34:49.632Z,9.10
2023-01-25T05:37:18.944Z,9.63
2023-01-25T05:39:45.761Z,9.43
2023-01-25T05:42:18.261Z,8.60
2023-01-25T05:44:47.578Z,8.67
2023-01-25T05:47:17.177Z,9.40
2023-01-25T05:49:44.021Z,9.17
2023-01-25T05:52:15.345Z,8.23
2023-01-25T05:54:42.389Z,9.97
2023-01-25T05:57:09.327Z,9.50
2023-01-25T05:59:36.043Z,9.63
2023-01-25T06:02:02.922Z,9.07
2023-01-25T06:04:29.781Z,10.17
2023-01-25T06:06:56.566Z,9.73
2023-01-25T06:09:23.536Z,9.23
2023-01-25T06:11:50.285Z,9.50
2023-01-25T06:14:17.484Z,8.87
2023-01-25T06:16:44.468Z,9.77
2023-01-25T06:19:13.020Z,9.30
2023-01-25T06:21:39.720Z,9.10
2023-01-25T06:24:07.020Z,9.80
2023-01-25T06:26:34.703Z,9.47
2023-01-25T06:29:01.423Z,10.03
2023-01-25T06:31:28.281Z,9.97
2023-01-25T06:33:55.129Z,11.00
2023-01-25T06:36:22.808Z,12.37
2023-01-25T06:38:51.063Z,12.27
2023-01-25T06:41:18.735Z,11.27
2023-01-25T06:43:46.031Z,11.33
2023-01-25T06:46:12.956Z,10.73
2023-01-25T06:48:40.256Z,11.43
2023-01-25T06:51:09.424Z,11.67
2023-01-25T06:53:39.640Z,12.47
2023-01-25T06:56:14.675Z,12.73
2023-01-25T06:58:41.776Z,12.33
2023-01-25T07:01:20.398Z,13.10
2023-01-25T07:03:52.369Z,13.23
2023-01-25T07:06:19.748Z,11.50
2023-01-25T07:08:47.076Z,10.93
2023-01-25T07:11:14.571Z,11.67
2023-01-25T07:13:43.432Z,11.53
2023-01-25T07:16:15.794Z,11.60
2023-01-25T07:18:42.635Z,11.33
2023-01-25T07:21:17.893Z,11.73
2023-01-25T07:23:44.869Z,12.07
2023-01-25T07:26:17.037Z,11.90
2023-01-25T07:28:44.599Z,11.47
2023-01-25T07:31:11.462Z,12.27
2023-01-25T07:33:38.145Z,11.80
2023-01-25T07:36:07.454Z,11.70
2023-01-25T07:38:34.887Z,12.37
2023-01-25T07:41:02.052Z,11.73
2023-01-25T07:43:30.509Z,12.67
2023-01-25T07:46:11.341Z,12.47
2023-01-25T07:48:39.185Z,11.43
2023-01-25T07:51:22.851Z,10.73
2023-01-25T07:53:55.436Z,11.83
2023-01-25T07:56:30.318Z,12.33
2023-01-25T07:58:59.280Z,11.20
2023-01-25T08:01:28.174Z,11.07
2023-01-25T08:03:58.322Z,11.77
2023-01-25T08:06:30.660Z,13.10
2023-01-25T08:08:59.337Z,11.40
2023-01-25T08:11:28.237Z,11.63
2023-01-25T08:13:55.457Z,11.77
2023-01-25T08:16:26.482Z,12.47
2023-01-25T08:18:55.554Z,11.27
2023-01-25T08:21:25.491Z,10.40
2023-01-25T08:23:52.678Z,11.10
2023-01-25T08:26:19.761Z,10.73
2023-01-25T08:28:47.183Z,11.50
2023-01-25T08:31:17.259Z,11.47
2023-01-25T08:33:46.837Z,12.77
2023-01-25T08:39:07.551Z,12.97
2023-01-25T08:41:36.424Z,12.23
2023-01-25T08:44:03.821Z,13.03
2023-01-25T08:46:33.232Z,14.27
2023-01-25T08:49:02.053Z,12.13
2023-01-25T08:51:31.336Z,13.10
2023-01-25T08:54:06.656Z,11.90
2023-01-25T08:56:34.077Z,12.10
2023-01-25T08:59:01.295Z,12.27
2023-01-25T09:01:28.428Z,12.10
2023-01-25T09:03:55.255Z,12.77
2023-01-25T09:06:22.112Z,11.83
2023-01-25T09:08:49.644Z,12.83
2023-01-25T09:11:20.725Z,13.47
2023-01-25T09:13:48.910Z,12.17
2023-01-25T09:16:28.459Z,12.67
2023-01-25T09:18:58.458Z,13.10
2023-01-25T09:21:25.374Z,12.47
2023-01-25T09:24:09.267Z,13.93
2023-01-25T09:26:44.251Z,13.23
2023-01-25T09:29:12.830Z,14.10
2023-01-25T09:31:41.122Z,13.57
2023-01-25T09:34:08.797Z,14.30
2023-01-25T09:36:36.261Z,13.80
2023-01-25T09:39:03.079Z,13.97
2023-01-25T09:42:14.878Z,13.57
2023-01-25T09:44:42.130Z,14.10
2023-01-25T09:47:38.109Z,25.47
2023-01-25T09:50:16.257Z,14.00
2023-01-25T09:53:10.878Z,13.10
2023-01-25T09:55:39.270Z,14.53
2023-01-25T09:58:14.376Z,14.10
2023-01-25T10:00:53.207Z,14.40
2023-01-25T10:03:35.066Z,14.60
2023-01-25T10:06:03.059Z,13.60
2023-01-25T10:09:05.685Z,15.80
2023-01-25T10:11:33.457Z,14.07
2023-01-25T10:14:00.370Z,12.97
2023-01-25T10:16:32.800Z,14.00
2023-01-25T10:19:05.784Z,14.40
2023-01-25T10:21:40.738Z,14.77
2023-01-25T10:24:23.360Z,14.27
2023-01-25T10:27:02.740Z,15.20
2023-01-25T10:29:35.702Z,15.93
2023-01-25T10:32:35.769Z,16.07
2023-01-25T10:35:33.174Z,15.83
2023-01-25T10:38:07.143Z,13.77
2023-01-25T10:40:46.351Z,14.70
2023-01-25T10:43:19.242Z,14.17
2023-01-25T10:45:46.640Z,15.20
2023-01-25T10:48:20.342Z,15.27
2023-01-25T10:50:50.129Z,14.23
2023-01-25T10:53:22.906Z,13.43
2023-01-25T10:56:00.545Z,14.33
2023-01-25T10:58:46.325Z,14.97
2023-01-25T11:01:28.529Z,14.30
2023-01-25T11:03:56.140Z,15.13
2023-01-25T11:06:47.322Z,13.67
2023-01-25T11:09:38.597Z,12.73
2023-01-25T11:12:11.376Z,13.47
2023-01-25T11:14:38.301Z,12.67
2023-01-25T11:17:06.605Z,11.73
2023-01-25T11:19:39.496Z,13.23
2023-01-25T11:22:26.032Z,12.17
2023-01-25T11:24:52.982Z,11.23
2023-01-25T11:27:23.972Z,11.93
2023-01-25T11:30:07.165Z,11.10
2023-01-25T11:32:34.502Z,12.60
2023-01-25T11:35:01.518Z,13.27
2023-01-25T11:37:52.779Z,12.93
2023-01-25T11:40:28.551Z,12.73
2023-01-25T11:43:21.155Z,13.50
2023-01-25T11:46:06.400Z,13.00
2023-01-25T11:49:02.676Z,13.40
2023-01-25T11:51:41.140Z,12.40
2023-01-25T11:54:26.055Z,11.50
2023-01-25T11:57:00.820Z,13.10
2023-01-25T12:00:14.358Z,11.97
2023-01-25T12:03:13.062Z,13.37
2023-01-25T12:05:53.370Z,12.43
2023-01-25T12:08:37.891Z,12.93
2023-01-25T12:11:24.261Z,13.90
2023-01-25T12:14:36.390Z,13.43
2023-01-25T12:17:23.568Z,12.50
2023-01-25T12:19:58.460Z,11.63
2023-01-25T12:22:52.196Z,10.83
2023-01-25T12:25:36.760Z,12.80
2023-01-25T12:28:22.134Z,13.50
2023-01-25T12:30:56.240Z,12.97
2023-01-25T12:33:34.129Z,11.77
2023-01-25T12:36:06.965Z,13.60
2023-01-25T12:39:00.036Z,12.27
2023-01-25T12:41:32.382Z,12.60
2023-01-25T12:44:09.703Z,11.10
2023-01-25T12:46:51.259Z,11.53
2023-01-25T12:49:43.185Z,12.17
2023-01-25T12:52:25.627Z,14.13
2023-01-25T12:54:56.915Z,12.43
2023-01-25T12:57:33.908Z,12.47
2023-01-25T13:00:28.322Z,11.03
2023-01-25T13:02:54.929Z,11.77
2023-01-25T13:05:54.823Z,10.93
2023-01-25T13:08:33.484Z,12.00
2023-01-25T13:11:25.821Z,12.37
2023-01-25T13:13:52.787Z,13.17
2023-01-25T13:16:33.529Z,14.37
2023-01-25T13:19:00.741Z,15.10
2023-01-25T13:21:47.693Z,14.23
2023-01-25T13:24:24.645Z,13.13
2023-01-25T13:26:54.236Z,14.03
2023-01-25T13:29:36.212Z,12.73
2023-01-25T13:32:05.273Z,13.83
2023-01-25T13:34:42.683Z,12.47
2023-01-25T13:37:31.605Z,12.80
2023-01-25T13:40:10.326Z,12.17
2023-01-25T13:42:39.413Z,12.70
2023-01-25T13:45:20.438Z,13.07
2023-01-25T13:48:21.862Z,13.13
2023-01-25T13:51:11.990Z,11.13
2023-01-25T13:53:39.709Z,12.53
2023-01-25T13:56:30.336Z,12.20
2023-01-25T13:58:57.471Z,13.00
2023-01-25T14:01:24.637Z,11.93
2023-01-25T14:04:01.909Z,13.27
2023-01-25T14:06:38.716Z,12.70
2023-01-25T14:09:20.694Z,12.33
2023-01-25T14:11:59.054Z,12.67
2023-01-25T14:14:27.953Z,13.13
2023-01-25T14:17:02.914Z,13.57
2023-01-25T14:19:30.727Z,12.87
2023-01-25T14:22:25.236Z,12.30
2023-01-25T14:25:12.125Z,12.70
2023-01-25T14:27:51.477Z,12.50
2023-01-25T14:30:32.914Z,12.53
2023-01-25T14:33:02.299Z,11.13
2023-01-25T14:38:28.531Z,11.70
2023-01-25T14:40:58.962Z,11.90
2023-01-25T14:43:26.300Z,11.57
2023-01-25T14:45:53.140Z,11.07
2023-01-25T14:48:37.658Z,10.83
2023-01-25T14:51:26.957Z,10.77
2023-01-25T14:54:05.265Z,12.73
2023-01-25T14:56:47.272Z,10.53
2023-01-25T14:59:28.823Z,10.77
2023-01-25T15:02:12.176Z,12.03
2023-01-25T15:04:38.995Z,10.40
2023-01-25T15:07:16.716Z,11.60
2023-01-25T15:10:20.091Z,11.53
2023-01-25T15:13:18.142Z,9.13
2023-01-25T15:16:02.141Z,10.90
2023-01-25T15:18:46.298Z,9.37
2023-01-25T15:21:18.274Z,8.80
2023-01-25T15:23:47.501Z,9.03
2023-01-25T15:26:23.034Z,8.80
2023-01-25T15:28:51.688Z,9.23
2023-01-25T15:31:26.457Z,10.27
2023-01-25T15:33:54.300Z,10.50
2023-01-25T15:36:21.093Z,10.23
2023-01-25T15:38:48.110Z,9.60
2023-01-25T15:41:15.330Z,10.07
2023-01-25T15:43:42.619Z,9.10
2023-01-25T15:46:27.937Z,8.87
2023-01-25T15:48:55.398Z,10.83
2023-01-25T15:51:23.358Z,9.97
2023-01-25T15:53:50.211Z,8.53
2023-01-25T15:56:27.405Z,7.83
2023-01-25T15:58:57.643Z,8.37
2023-01-25T16:01:27.484Z,8.00
2023-01-25T16:03:59.283Z,8.03
2023-01-25T16:06:35.583Z,7.80
2023-01-25T16:09:16.503Z,8.77
2023-01-25T16:11:43.524Z,8.57
2023-01-25T16:14:10.360Z,9.73
2023-01-25T16:16:44.661Z,8.27
2023-01-25T16:19:17.190Z,9.60
2023-01-25T16:21:44.187Z,8.97
2023-01-25T16:24:11.920Z,8.27
2023-01-25T16:26:44.422Z,7.70
2023-01-25T16:29:11.793Z,8.30
2023-01-25T16:31:38.724Z,7.80
2023-01-25T16:34:06.148Z,8.43
2023-01-25T16:36:34.515Z,9.20
2023-01-25T16:39:14.953Z,7.67
2023-01-25T16:41:41.595Z,7.90
2023-01-25T16:44:08.387Z,7.17
2023-01-25T16:46:35.340Z,7.80
2023-01-25T16:49:04.980Z,8.93
2023-01-25T16:51:32.879Z,8.53
2023-01-25T16:53:59.742Z,8.50
2023-01-25T16:56:29.206Z,8.20
2023-01-25T16:59:00.033Z,7.63
2023-01-25T17:01:27.565Z,7.80
2023-01-25T17:03:55.795Z,8.40
2023-01-25T17:06:31.595Z,7.80
2023-01-25T17:09:09.355Z,8.13
2023-01-25T17:11:39.961Z,7.57
2023-01-25T17:14:07.188Z,8.23
2023-01-25T17:16:34.574Z,8.40
2023-01-25T17:19:06.863Z,8.03
2023-01-25T17:21:34.229Z,8.10
2023-01-25T17:24:02.512Z,8.33
2023-01-25T17:26:30.475Z,8.00
2023-01-25T17:28:59.206Z,8.13
2023-01-25T17:31:31.165Z,8.67
2023-01-25T17:34:00.890Z,9.47
2023-01-25T17:36:27.640Z,8.53
2023-01-25T17:38:54.331Z,8.67
2023-01-25T17:41:21.089Z,9.73
2023-01-25T17:43:52.768Z,8.20
2023-01-25T17:46:26.006Z,7.73
2023-01-25T17:48:53.518Z,8.67
2023-01-25T17:51:22.272Z,9.07
2023-01-25T17:53:50.176Z,8.57
2023-01-25T17:56:18.999Z,10.47
2023-01-25T17:58:46.126Z,10.33
2023-01-25T18:01:18.046Z,8.93
2023-01-25T18:03:46.203Z,9.13
2023-01-25T18:06:16.830Z,10.57
2023-01-25T18:08:45.998Z,10.07
2023-01-25T18:11:24.447Z,9.67
2023-01-25T18:13:53.222Z,10.27
2023-01-25T18:16:23.567Z,9.30
2023-01-25T18:18:51.956Z,9.37
2023-01-25T18:21:24.303Z,10.27
2023-01-25T18:23:53.582Z,10.03
2023-01-25T18:26:22.635Z,9.53
2023-01-25T18:28:51.897Z,10.57
2023-01-25T18:31:19.232Z,11.33
2023-01-25T18:33:46.009Z,9.97
2023-01-25T18:36:17.242Z,10.23
2023-01-25T18:38:44.601Z,10.07
2023-01-25T18:41:12.241Z,9.50
2023-01-25T18:43:39.222Z,11.00
2023-01-25T18:46:06.317Z,9.27
2023-01-25T18:48:33.528Z,9.97
2023-01-25T18:51:04.014Z,10.03
2023-01-25T18:53:32.940Z,10.60
2023-01-25T18:56:05.836Z,9.97
2023-01-25T18:58:34.635Z,10.73
2023-01-25T19:01:13.990Z,10.70
2023-01-25T19:03:42.092Z,10.33
2023-01-25T19:06:10.002Z,10.37
2023-01-25T19:08:41.531Z,11.70
2023-01-25T19:11:13.961Z,10.57
2023-01-25T19:13:42.146Z,9.83
2023-01-25T19:16:17.364Z,11.77
2023-01-25T19:18:49.764Z,9.97
2023-01-25T19:21:19.593Z,10.90
2023-01-25T19:23:46.489Z,11.67
2023-01-25T19:26:18.486Z,11.47
2023-01-25T19:28:46.572Z,9.83
2023-01-25T19:31:18.841Z,10.53
2023-01-25T19:33:46.155Z,10.47
2023-01-25T19:36:16.703Z,11.20
2023-01-25T19:38:44.062Z,10.63
2023-01-25T19:41:13.166Z,10.50
2023-01-25T19:43:44.419Z,9.80
2023-01-25T19:46:12.382Z,11.10
2023-01-25T19:48:40.336Z,10.27
2023-01-25T19:51:19.059Z,10.07
2023-01-25T19:53:51.935Z,9.97
2023-01-25T19:56:18.848Z,10.13
2023-01-25T19:58:47.004Z,11.50
2023-01-25T20:01:16.597Z,12.23
2023-01-25T20:03:44.145Z,11.07
2023-01-25T20:06:12.145Z,12.73
2023-01-25T20:08:41.312Z,12.17
2023-01-25T20:11:14.126Z,9.87
2023-01-25T20:13:42.011Z,10.03
2023-01-25T20:16:10.452Z,10.03
2023-01-25T20:18:37.230Z,10.07
2023-01-25T20:21:06.828Z,10.00
2023-01-25T20:23:35.351Z,9.30
2023-01-25T20:26:07.784Z,9.80
2023-01-25T20:28:36.318Z,10.53
2023-01-25T20:31:04.432Z,9.90
2023-01-25T20:33:35.503Z,9.87
2023-01-25T20:36:04.566Z,9.60
2023-01-25T20:38:32.766Z,9.80
2023-01-25T20:41:04.803Z,8.40
2023-01-25T20:43:32.052Z,8.93
2023-01-25T20:46:00.138Z,9.30
2023-01-25T20:48:28.472Z,9.60
2023-01-25T20:51:02.933Z,9.10
2023-01-25T20:53:30.559Z,9.37
2023-01-25T20:55:58.504Z,9.80
2023-01-25T20:58:25.592Z,9.80
2023-01-25T21:00:52.668Z,10.27
2023-01-25T21:03:19.572Z,10.20
2023-01-25T21:06:04.635Z,9.57
2023-01-25T21:08:31.593Z,9.73
2023-01-25T21:11:00.050Z,9.30
2023-01-25T21:13:29.276Z,10.30
2023-01-25T21:16:11.686Z,9.93
2023-01-25T21:18:41.456Z,10.13
2023-01-25T21:21:13.391Z,10.50
2023-01-25T21:23:42.406Z,10.37
2023-01-25T21:26:23.330Z,11.60
2023-01-25T21:28:51.118Z,10.47
2023-01-25T21:31:20.449Z,9.33
2023-01-25T21:33:48.049Z,11.17
2023-01-25T21:36:16.400Z,11.57
2023-01-25T21:38:48.375Z,10.40
2023-01-25T21:41:21.682Z,11.80
2023-01-25T21:44:07.963Z,12.27
2023-01-25T21:46:35.180Z,10.87
2023-01-25T21:49:23.370Z,9.83
2023-01-25T21:51:52.621Z,10.47
2023-01-25T21:54:27.516Z,11.40
2023-01-25T21:56:56.109Z,10.07
2023-01-25T21:59:23.929Z,10.00
2023-01-25T22:01:51.590Z,10.07
2023-01-25T22:04:19.601Z,11.20
2023-01-25T22:06:48.612Z,10.70
2023-01-25T22:09:16.132Z,9.37
2023-01-25T22:11:45.796Z,10.23
2023-01-25T22:14:13.646Z,10.67
2023-01-25T22:16:40.475Z,12.13
2023-01-25T22:19:07.448Z,10.87
2023-01-25T22:21:34.270Z,11.33
2023-01-25T22:24:03.286Z,10.80
2023-01-25T22:26:46.471Z,10.33
2023-01-25T22:29:13.526Z,10.30
2023-01-25T22:31:40.363Z,10.37
2023-01-25T22:34:07.468Z,9.53
2023-01-25T22:36:34.288Z,8.93
2023-01-25T22:39:01.074Z,10.70
2023-01-25T22:41:30.134Z,8.97
2023-01-25T22:43:57.941Z,8.70
2023-01-25T22:46:27.126Z,8.07
2023-01-25T22:48:53.892Z,8.70
2023-01-25T22:51:25.325Z,9.33
2023-01-25T22:53:53.197Z,8.23
2023-01-25T22:56:25.543Z,9.30
2023-01-25T22:58:53.018Z,8.53
2023-01-25T23:01:28.507Z,9.23
2023-01-25T23:03:56.117Z,8.80
2023-01-25T23:06:28.993Z,8.17
2023-01-25T23:08:59.801Z,8.73
2023-01-25T23:11:32.350Z,8.53
2023-01-25T23:14:18.024Z,9.10
2023-01-25T23:16:44.879Z,7.70
2023-01-25T23:19:11.999Z,7.60
2023-01-25T23:21:39.005Z,8.17
2023-01-25T23:24:06.138Z,8.37
2023-01-25T23:26:37.766Z,8.50
2023-01-25T23:29:07.628Z,9.17
2023-01-25T23:31:34.677Z,8.57
2023-01-25T23:34:03.602Z,9.10
2023-01-25T23:36:36.085Z,9.13
2023-01-25T23:39:03.155Z,9.03
2023-01-25T23:41:32.515Z,9.47
2023-01-25T23:43:59.785Z,9.07
2023-01-25T23:46:28.313Z,9.33
2023-01-25T23:48:55.617Z,9.07
2023-01-25T23:51:22.592Z,9.77
2023-01-25T23:53:49.499Z,9.50
2023-01-25T23:56:18.557Z,9.17
2023-01-25T23:58:45.521Z,9.83
